Johann Essberger — CQKG — position and weather

sailwx.info

Track history (hours):
 
Tides and Currents Weather Stations Pressure Air Temp Water Temp Dewpoint Dewpoint Depression Visibility Wind Speed Wind Dir Waves Ship Positions

Johann Essberger

Last reported at 2014-Sep-23 05:33 UTC. Time now 2014-Sep-23 12:20 UTC.
Position N 51°16' E 004°15'.

Length 100 m; draft 5.6 m.

Type: Ship (hazmat cat B). MMSI: 255804460.

Date/timePositionNaut miles runAvg speedWind from/ knotsBaromVisibWave heightAir tempDewpointWater temp
2014-Sep-23 05:33N 51°16' E 004°15'1 0.9
2014-Sep-23 04:34N 51°16' E 004°17'4 4.2
2014-Sep-23 03:34N 51°20' E 004°16'10 9.5
2014-Sep-23 02:34N 51°23' E 004°02'9 9.1
2014-Sep-23 01:33N 51°21' E 003°48'1110.9
2014-Sep-23 00:33N 51°25' E 003°32'1111.1
2014-Sep-22 23:33N 51°24' E 003°14'1313.1
2014-Sep-22 22:33N 51°22' E 002°53'1313.0
2014-Sep-22 21:32N 51°22' E 002°32'1111.1
2014-Sep-22 20:32N 51°18' E 002°15'1110.9
2014-Sep-22 19:33N 51°22' E 001°60'8 7.7
2014-Sep-22 18:33N 51°30' E 001°59'9 9.0
2014-Sep-22 17:34N 51°37' E 002°09'5 1.7
2014-Sep-22 14:34N 51°42' E 002°07'8 7.9
2014-Sep-22 13:34N 51°36' E 001°59'1111.2
2014-Sep-22 12:34N 51°31' E 001°43'1111.2
2014-Sep-22 11:33N 51°25' E 001°27'0 0.0
2014-Sep-22 10:33N 51°25' E 001°27'0 0.0
2014-Sep-22 09:33N 51°25' E 001°27'0 0.1
2014-Sep-22 08:33N 51°25' E 001°27'0 0.0
2014-Sep-22 07:33N 51°25' E 001°27'0 0.0
2014-Sep-22 06:33N 51°25' E 001°27'0 0.0
2014-Sep-22 05:34N 51°25' E 001°27'0 0.0
2014-Sep-22 04:34N 51°25' E 001°27'0 0.0
2014-Sep-22 03:34N 51°25' E 001°27'0 0.0
2014-Sep-22 02:34N 51°25' E 001°27'0 0.0
2014-Sep-22 01:34N 51°25' E 001°27'0 0.1
2014-Sep-22 00:33N 51°25' E 001°27'0 0.0
2014-Sep-21 23:33N 51°25' E 001°27'0 0.1
2014-Sep-21 22:33N 51°25' E 001°27'0 0.0
2014-Sep-21 21:33N 51°25' E 001°27'0 0.1
2014-Sep-21 20:33N 51°25' E 001°27'0 0.0
2014-Sep-21 19:33N 51°25' E 001°27'0 0.0
2014-Sep-21 18:33N 51°25' E 001°27'0 0.0
2014-Sep-21 17:34N 51°25' E 001°27'0 0.0
2014-Sep-21 16:33N 51°25' E 001°27'0 0.0
2014-Sep-21 15:33N 51°25' E 001°27'0 0.0
2014-Sep-21 14:34N 51°25' E 001°27'0 0.0
2014-Sep-21 13:34N 51°25' E 001°27'6 6.2
2014-Sep-21 12:33N 51°29' E 001°19'1514.7
2014-Sep-21 11:34N 51°29' E 000°55'1313.3
2014-Sep-21 10:33N 51°30' E 000°34'9 9.3
2014-Sep-21 09:33N 51°28' E 000°19'1 0.9
2014-Sep-21 08:33N 51°28' E 000°18'0 0.0
2014-Sep-20 16:20N 51°28' E 000°18'0 0.3
2014-Sep-20 15:34N 51°28' E 000°18'5 5.4
2014-Sep-20 14:33N 51°28' E 000°27'10 9.8
2014-Sep-20 13:33N 51°30' E 000°43'1211.5
2014-Sep-20 12:34N 51°30' E 001°01'1212.1
2014-Sep-20 11:33N 51°29' E 001°21'9 8.8
2014-Sep-20 10:33N 51°28' E 001°35'1010.1
2014-Sep-20 09:33N 51°34' E 001°48'10 9.8
2014-Sep-20 08:33N 51°39' E 002°01'1010.0
2014-Sep-20 07:33N 51°45' E 002°15'1110.2
2014-Sep-20 06:30N 51°50' E 002°29'3611.3
2014-Sep-20 03:17N 52°03' E 003°25'911.8
2014-Sep-20 02:33N 52°03' E 003°39'1110.7
2014-Sep-20 01:33N 52°02' E 003°56'1312.5
2014-Sep-20 00:34N 51°56' E 004°13'9 9.4
2014-Sep-19 23:33N 51°50' E 004°26'8 8.1
2014-Sep-19 22:33N 51°47' E 004°38'0 0.0
2014-Sep-19 21:31N 51°47' E 004°38'0 0.0
2014-Sep-19 19:19N 51°47' E 004°38'0 0.0
2014-Sep-18 22:33N 51°47' E 004°38'2 1.9
2014-Sep-18 21:34N 51°48' E 004°36'10 9.8
2014-Sep-18 20:33N 51°51' E 004°20'8 7.5
2014-Sep-18 19:33N 51°57' E 004°11'1 0.6
2014-Sep-18 18:34N 51°56' E 004°12'1 1.2
2014-Sep-18 17:25N 51°55' E 004°13'0 0.0
2014-Sep-18 00:32N 51°55' E 004°13'1 0.6
2014-Sep-17 23:33N 51°55' E 004°13'9 9.0
2014-Sep-17 22:33N 51°60' E 004°00'9 9.0
2014-Sep-17 21:32N 51°59' E 003°45'10 9.9
2014-Sep-17 20:33N 51°56' E 003°30'9 9.4
2014-Sep-17 19:34N 51°54' E 003°15'10 9.4
2014-Sep-17 18:28N 51°53' E 002°59'9 9.4
2014-Sep-17 17:27N 51°53' E 002°43'8 8.7
2014-Sep-17 16:33N 51°56' E 002°32'8 8.2
2014-Sep-17 15:33N 52°04' E 002°30'7 6.7
2014-Sep-17 14:33N 52°10' E 002°26'8 8.3
2014-Sep-17 13:33N 52°10' E 002°12'8 8.2
2014-Sep-17 12:33N 52°02' E 002°12'9 7.8
2014-Sep-17 11:28N 51°53' E 002°10'1011.4
2014-Sep-17 10:33N 51°49' E 001°55'1010.3
2014-Sep-17 09:33N 51°53' E 001°39'0 0.0
2014-Sep-17 08:33N 51°53' E 001°39'0 0.1
2014-Sep-17 07:33N 51°53' E 001°39'0 0.1
2014-Sep-17 06:33N 51°53' E 001°39'0 0.0
2014-Sep-17 05:33N 51°53' E 001°39'0 0.0
2014-Sep-17 04:33N 51°53' E 001°39'0 0.0
2014-Sep-17 03:33N 51°53' E 001°39'0 0.0
2014-Sep-17 02:33N 51°53' E 001°39'0 0.0
2014-Sep-17 01:33N 51°53' E 001°39'0 0.0
2014-Sep-17 00:33N 51°53' E 001°39'0 0.0
2014-Sep-16 23:33N 51°53' E 001°39'0 0.0
2014-Sep-16 22:31N 51°53' E 001°39'0 0.1
2014-Sep-16 21:31N 51°53' E 001°39'0 0.0
2014-Sep-16 20:33N 51°53' E 001°39'0 0.0
2014-Sep-16 19:33N 51°53' E 001°39'0 0.1
2014-Sep-16 18:31N 51°53' E 001°39'0 0.1
2014-Sep-16 17:32N 51°53' E 001°39'0 0.0
2014-Sep-16 16:31N 51°53' E 001°39'0 0.0
2014-Sep-16 15:31N 51°53' E 001°39'0 0.0
2014-Sep-16 14:31N 51°53' E 001°39'0 0.0
2014-Sep-16 13:31N 51°53' E 001°39'0 0.0
2014-Sep-16 12:31N 51°53' E 001°39'0 0.0
2014-Sep-16 11:31N 51°53' E 001°39'0 0.1
2014-Sep-16 10:33N 51°53' E 001°39'8 8.3
2014-Sep-16 09:33N 51°56' E 001°27'8 7.6
2014-Sep-16 08:33N 51°57' E 001°14'0 0.0
2014-Sep-16 07:31N 51°57' E 001°14'1 0.1
2014-Sep-15 09:33N 51°57' E 001°17'9 9.0
2014-Sep-15 08:33N 51°57' E 001°31'2 1.8
2014-Sep-15 07:32N 51°58' E 001°33'0 0.0
2014-Sep-15 06:32N 51°59' E 001°33'195197.5
2014-Sep-15 05:33N 54°49' W 001°06'195189.7
2014-Sep-15 04:31N 51°58' E 001°33'0 0.1
2014-Sep-15 03:31N 51°58' E 001°33'0 0.0
2014-Sep-15 02:31N 51°58' E 001°33'0 0.0
2014-Sep-15 01:31N 51°58' E 001°33'0 0.0
2014-Sep-15 00:32N 51°58' E 001°33'6 5.7
2014-Sep-14 23:33N 52°03' E 001°39'1413.9
2014-Sep-14 22:33N 52°15' E 001°49'1313.0
2014-Sep-14 21:33N 52°28' E 001°52'1211.9
2014-Sep-14 20:33N 52°40' E 001°55'10 9.7
2014-Sep-14 19:33N 52°48' E 001°48'1010.0
2014-Sep-14 18:33N 52°56' E 001°36'10 9.6
2014-Sep-14 17:34N 53°03' E 001°27'10 9.9
2014-Sep-14 16:33N 53°12' E 001°18'4210.0
2014-Sep-14 12:21N 53°48' E 000°40'911.0
2014-Sep-14 11:33N 53°55' E 000°32'1111.5
2014-Sep-14 10:33N 54°04' E 000°22'1110.7
2014-Sep-14 09:34N 54°14' E 000°12'10 9.9
2014-Sep-14 08:33N 54°22' E 000°03'1010.0
2014-Sep-14 07:34N 54°31' W 000°05'10 9.6
2014-Sep-14 06:34N 54°37' W 000°17'1111.3
2014-Sep-14 05:33N 54°41' W 000°36'1212.1
2014-Sep-14 04:33N 54°41' W 000°57'6 0.5
2014-Sep-13 16:13N 54°40' W 001°07'13 8.0
2014-Sep-13 14:32N 54°54' W 001°07'9 8.3
2014-Sep-13 13:30N 55°02' W 001°10'9 9.9
2014-Sep-13 12:33N 55°11' W 001°12'2510.5
2014-Sep-13 10:09N 55°36' W 001°18'710.8
2014-Sep-13 09:33N 55°43' W 001°19'1211.3
2014-Sep-13 08:30N 55°55' W 001°21'1111.6
2014-Sep-13 07:33N 56°06' W 001°24'1211.9
2014-Sep-13 06:33N 56°17' W 001°27'  
Track history (hours):
 
Tides and Currents Weather Stations Pressure Air Temp Water Temp Dewpoint Dewpoint Depression Visibility Wind Speed Wind Dir Waves Ship Positions

Johann Essberger

Last reported at 2014-Sep-23 05:33 UTC. Time now 2014-Sep-23 12:20 UTC.
Position N 51°16' E 004°15'.

Length 100 m; draft 5.6 m.

Type: Ship (hazmat cat B). MMSI: 255804460.

Date/timePositionNaut miles runAvg speedWind from/ knotsBaromVisibWave heightAir tempDewpointWater temp
2014-Sep-23 05:33N 51°16' E 004°15'1 0.9
2014-Sep-23 04:34N 51°16' E 004°17'4 4.2
2014-Sep-23 03:34N 51°20' E 004°16'10 9.5
2014-Sep-23 02:34N 51°23' E 004°02'9 9.1
2014-Sep-23 01:33N 51°21' E 003°48'1110.9
2014-Sep-23 00:33N 51°25' E 003°32'1111.1
2014-Sep-22 23:33N 51°24' E 003°14'1313.1
2014-Sep-22 22:33N 51°22' E 002°53'1313.0
2014-Sep-22 21:32N 51°22' E 002°32'1111.1
2014-Sep-22 20:32N 51°18' E 002°15'1110.9
2014-Sep-22 19:33N 51°22' E 001°60'8 7.7
2014-Sep-22 18:33N 51°30' E 001°59'9 9.0
2014-Sep-22 17:34N 51°37' E 002°09'5 1.7
2014-Sep-22 14:34N 51°42' E 002°07'8 7.9
2014-Sep-22 13:34N 51°36' E 001°59'1111.2
2014-Sep-22 12:34N 51°31' E 001°43'1111.2
2014-Sep-22 11:33N 51°25' E 001°27'0 0.0
2014-Sep-22 10:33N 51°25' E 001°27'0 0.0
2014-Sep-22 09:33N 51°25' E 001°27'0 0.1
2014-Sep-22 08:33N 51°25' E 001°27'0 0.0
2014-Sep-22 07:33N 51°25' E 001°27'0 0.0
2014-Sep-22 06:33N 51°25' E 001°27'0 0.0
2014-Sep-22 05:34N 51°25' E 001°27'0 0.0
2014-Sep-22 04:34N 51°25' E 001°27'0 0.0
2014-Sep-22 03:34N 51°25' E 001°27'0 0.0
2014-Sep-22 02:34N 51°25' E 001°27'0 0.0
2014-Sep-22 01:34N 51°25' E 001°27'0 0.1
2014-Sep-22 00:33N 51°25' E 001°27'0 0.0
2014-Sep-21 23:33N 51°25' E 001°27'0 0.1
2014-Sep-21 22:33N 51°25' E 001°27'0 0.0
2014-Sep-21 21:33N 51°25' E 001°27'0 0.1
2014-Sep-21 20:33N 51°25' E 001°27'0 0.0
2014-Sep-21 19:33N 51°25' E 001°27'0 0.0
2014-Sep-21 18:33N 51°25' E 001°27'0 0.0
2014-Sep-21 17:34N 51°25' E 001°27'0 0.0
2014-Sep-21 16:33N 51°25' E 001°27'0 0.0
2014-Sep-21 15:33N 51°25' E 001°27'0 0.0
2014-Sep-21 14:34N 51°25' E 001°27'0 0.0
2014-Sep-21 13:34N 51°25' E 001°27'6 6.2
2014-Sep-21 12:33N 51°29' E 001°19'1514.7
2014-Sep-21 11:34N 51°29' E 000°55'1313.3
2014-Sep-21 10:33N 51°30' E 000°34'9 9.3
2014-Sep-21 09:33N 51°28' E 000°19'1 0.9
2014-Sep-21 08:33N 51°28' E 000°18'0 0.0
2014-Sep-20 16:20N 51°28' E 000°18'0 0.3
2014-Sep-20 15:34N 51°28' E 000°18'5 5.4
2014-Sep-20 14:33N 51°28' E 000°27'10 9.8
2014-Sep-20 13:33N 51°30' E 000°43'1211.5
2014-Sep-20 12:34N 51°30' E 001°01'1212.1
2014-Sep-20 11:33N 51°29' E 001°21'9 8.8
2014-Sep-20 10:33N 51°28' E 001°35'1010.1
2014-Sep-20 09:33N 51°34' E 001°48'10 9.8
2014-Sep-20 08:33N 51°39' E 002°01'1010.0
2014-Sep-20 07:33N 51°45' E 002°15'1110.2
2014-Sep-20 06:30N 51°50' E 002°29'3611.3
2014-Sep-20 03:17N 52°03' E 003°25'911.8
2014-Sep-20 02:33N 52°03' E 003°39'1110.7
2014-Sep-20 01:33N 52°02' E 003°56'1312.5
2014-Sep-20 00:34N 51°56' E 004°13'9 9.4
2014-Sep-19 23:33N 51°50' E 004°26'8 8.1
2014-Sep-19 22:33N 51°47' E 004°38'0 0.0
2014-Sep-19 21:31N 51°47' E 004°38'0 0.0
2014-Sep-19 19:19N 51°47' E 004°38'0 0.0
2014-Sep-18 22:33N 51°47' E 004°38'2 1.9
2014-Sep-18 21:34N 51°48' E 004°36'10 9.8
2014-Sep-18 20:33N 51°51' E 004°20'8 7.5
2014-Sep-18 19:33N 51°57' E 004°11'1 0.6
2014-Sep-18 18:34N 51°56' E 004°12'1 1.2
2014-Sep-18 17:25N 51°55' E 004°13'0 0.0
2014-Sep-18 00:32N 51°55' E 004°13'1 0.6
2014-Sep-17 23:33N 51°55' E 004°13'9 9.0
2014-Sep-17 22:33N 51°60' E 004°00'9 9.0
2014-Sep-17 21:32N 51°59' E 003°45'10 9.9
2014-Sep-17 20:33N 51°56' E 003°30'9 9.4
2014-Sep-17 19:34N 51°54' E 003°15'10 9.4
2014-Sep-17 18:28N 51°53' E 002°59'9 9.4
2014-Sep-17 17:27N 51°53' E 002°43'8 8.7
2014-Sep-17 16:33N 51°56' E 002°32'8 8.2
2014-Sep-17 15:33N 52°04' E 002°30'7 6.7
2014-Sep-17 14:33N 52°10' E 002°26'8 8.3
2014-Sep-17 13:33N 52°10' E 002°12'8 8.2
2014-Sep-17 12:33N 52°02' E 002°12'9 7.8
2014-Sep-17 11:28N 51°53' E 002°10'1011.4
2014-Sep-17 10:33N 51°49' E 001°55'1010.3
2014-Sep-17 09:33N 51°53' E 001°39'0 0.0
2014-Sep-17 08:33N 51°53' E 001°39'0 0.1
2014-Sep-17 07:33N 51°53' E 001°39'0 0.1
2014-Sep-17 06:33N 51°53' E 001°39'0 0.0
2014-Sep-17 05:33N 51°53' E 001°39'0 0.0
2014-Sep-17 04:33N 51°53' E 001°39'0 0.0
2014-Sep-17 03:33N 51°53' E 001°39'0 0.0
2014-Sep-17 02:33N 51°53' E 001°39'0 0.0
2014-Sep-17 01:33N 51°53' E 001°39'0 0.0
2014-Sep-17 00:33N 51°53' E 001°39'0 0.0
2014-Sep-16 23:33N 51°53' E 001°39'0 0.0
2014-Sep-16 22:31N 51°53' E 001°39'0 0.1
2014-Sep-16 21:31N 51°53' E 001°39'0 0.0
2014-Sep-16 20:33N 51°53' E 001°39'0 0.0
2014-Sep-16 19:33N 51°53' E 001°39'0 0.1
2014-Sep-16 18:31N 51°53' E 001°39'0 0.1
2014-Sep-16 17:32N 51°53' E 001°39'0 0.0
2014-Sep-16 16:31N 51°53' E 001°39'0 0.0
2014-Sep-16 15:31N 51°53' E 001°39'0 0.0
2014-Sep-16 14:31N 51°53' E 001°39'0 0.0
2014-Sep-16 13:31N 51°53' E 001°39'0 0.0
2014-Sep-16 12:31N 51°53' E 001°39'0 0.0
2014-Sep-16 11:31N 51°53' E 001°39'0 0.1
2014-Sep-16 10:33N 51°53' E 001°39'8 8.3
2014-Sep-16 09:33N 51°56' E 001°27'8 7.6
2014-Sep-16 08:33N 51°57' E 001°14'0 0.0
2014-Sep-16 07:31N 51°57' E 001°14'1 0.1
2014-Sep-15 09:33N 51°57' E 001°17'9 9.0
2014-Sep-15 08:33N 51°57' E 001°31'2 1.8
2014-Sep-15 07:32N 51°58' E 001°33'0 0.0
2014-Sep-15 06:32N 51°59' E 001°33'195197.5
2014-Sep-15 05:33N 54°49' W 001°06'195189.7
2014-Sep-15 04:31N 51°58' E 001°33'0 0.1
2014-Sep-15 03:31N 51°58' E 001°33'0 0.0
2014-Sep-15 02:31N 51°58' E 001°33'0 0.0
2014-Sep-15 01:31N 51°58' E 001°33'0 0.0
2014-Sep-15 00:32N 51°58' E 001°33'6 5.7
2014-Sep-14 23:33N 52°03' E 001°39'1413.9
2014-Sep-14 22:33N 52°15' E 001°49'1313.0
2014-Sep-14 21:33N 52°28' E 001°52'1211.9
2014-Sep-14 20:33N 52°40' E 001°55'10 9.7
2014-Sep-14 19:33N 52°48' E 001°48'1010.0
2014-Sep-14 18:33N 52°56' E 001°36'10 9.6
2014-Sep-14 17:34N 53°03' E 001°27'10 9.9
2014-Sep-14 16:33N 53°12' E 001°18'4210.0
2014-Sep-14 12:21N 53°48' E 000°40'911.0
2014-Sep-14 11:33N 53°55' E 000°32'1111.5
2014-Sep-14 10:33N 54°04' E 000°22'1110.7
2014-Sep-14 09:34N 54°14' E 000°12'10 9.9
2014-Sep-14 08:33N 54°22' E 000°03'1010.0
2014-Sep-14 07:34N 54°31' W 000°05'10 9.6
2014-Sep-14 06:34N 54°37' W 000°17'1111.3
2014-Sep-14 05:33N 54°41' W 000°36'1212.1
2014-Sep-14 04:33N 54°41' W 000°57'6 0.5
2014-Sep-13 16:13N 54°40' W 001°07'13 8.0
2014-Sep-13 14:32N 54°54' W 001°07'9 8.3
2014-Sep-13 13:30N 55°02' W 001°10'9 9.9
2014-Sep-13 12:33N 55°11' W 001°12'2510.5
2014-Sep-13 10:09N 55°36' W 001°18'710.8
2014-Sep-13 09:33N 55°43' W 001°19'1211.3
2014-Sep-13 08:30N 55°55' W 001°21'1111.6
2014-Sep-13 07:33N 56°06' W 001°24'1211.9
2014-Sep-13 06:33N 56°17' W 001°27'  

Dump ship's entire track history